Bow Kiso — 3EPY3 — position and weather

sailwx.info

Track history (hours):
 
Tides and Currents Weather Stations Pressure Air Temp Water Temp Dewpoint Dewpoint Depression Visibility Wind Speed Wind Dir Waves Ship Positions

Bow Kiso

Last reported at 2017-Dec-03 17:39 UTC. Time now 2017-Dec-18 01:18 UTC.
Position N 29°23' W 094°53'.
Warning: this ship's position is 14 days out of date.

Length 170 m; draft 9.3 m.

Type: Ship (hazmat cat A). MMSI: 356958000.

Date/timePositionNaut miles runAvg speedWind from/ knotsBaromVisibWave heightAir tempDewpointWater temp
2017-Dec-03 17:39N 29°23' W 094°53'1 5.5
2017-Dec-03 17:31N 29°23' W 094°52'5 9.4
2017-Dec-03 16:56N 29°21' W 094°46'2610.3
2017-Dec-03 14:25N 29°12' W 094°18'712.8
2017-Dec-03 13:53N 29°17' W 094°13'512.7
2017-Dec-03 13:30N 29°20' W 094°09'712.4
2017-Dec-03 12:59N 29°25' W 094°04'3 6.0
2017-Dec-03 12:29N 29°23' W 094°06'4 8.1
2017-Dec-03 12:00N 29°25' W 094°02'611.8
2017-Dec-03 11:31N 29°21' W 094°07'812.4
2017-Dec-03 10:52N 29°15' W 094°14'411.4
2017-Dec-03 10:31N 29°12' W 094°17'612.1
2017-Dec-03 10:01N 29°17' W 094°12'612.9
2017-Dec-03 09:30N 29°21' W 094°07'612.7
2017-Dec-03 09:00N 29°25' W 094°01'510.2
2017-Dec-03 08:31N 29°29' W 093°57'612.4
2017-Dec-03 08:01N 29°25' W 094°03'912.4
2017-Dec-03 07:19N 29°19' W 094°10'411.7
2017-Dec-03 07:00N 29°17' W 094°13'611.9
2017-Dec-03 06:30N 29°20' W 094°08'712.6
2017-Dec-03 05:56N 29°25' W 094°02'512.6
2017-Dec-03 05:31N 29°29' W 093°57'11 9.6
2017-Dec-03 04:25N 29°35' W 093°47'710.9
2017-Dec-03 03:49N 29°41' W 093°50'311.4
2017-Dec-03 03:30N 29°44' W 093°52'9 6.6
2017-Dec-03 02:13N 29°52' W 093°56'2 6.3
2017-Dec-03 01:58N 29°53' W 093°55'4 8.5
2017-Dec-03 01:30N 29°56' W 093°52'  
2017-Nov-30 14:18N 30°05' W 094°05'0 0.0
2017-Nov-30 14:00N 30°05' W 094°05'0 0.0
2017-Nov-30 13:24N 30°05' W 094°05'0 0.0
2017-Nov-30 12:09N 30°05' W 094°05'0 0.1
2017-Nov-30 12:00N 30°05' W 094°05'0 0.0
2017-Nov-30 11:18N 30°05' W 094°05'0 0.0
2017-Nov-30 11:00N 30°05' W 094°05'0 0.0
2017-Nov-30 10:30N 30°05' W 094°05'0 0.0
2017-Nov-30 10:00N 30°05' W 094°05'0 0.0
2017-Nov-30 09:30N 30°05' W 094°05'0 0.0
2017-Nov-30 09:00N 30°05' W 094°05'0 0.0
2017-Nov-30 08:30N 30°05' W 094°05'0 0.0
2017-Nov-30 07:06N 30°05' W 094°05'0 0.1
2017-Nov-30 07:00N 30°05' W 094°05'0 0.0
2017-Nov-30 06:26N 30°05' W 094°05'0 0.0
2017-Nov-30 06:00N 30°05' W 094°05'0 0.0
2017-Nov-30 05:30N 30°05' W 094°05'7 4.4
2017-Nov-30 04:00N 30°01' W 093°59'7 6.3
2017-Nov-30 02:53N 29°58' W 093°51'3 8.0
2017-Nov-30 02:30N 29°55' W 093°53'4 8.8
2017-Nov-30 02:00N 29°52' W 093°56'12 7.8
2017-Nov-30 00:29N 29°41' W 093°50'1512.6
2017-Nov-29 23:17N 29°29' W 093°40'310.2
2017-Nov-29 23:01N 29°26' W 093°38'1 1.1
2017-Nov-29 22:28N 29°26' W 093°39'0 0.0
2017-Nov-29 21:58N 29°26' W 093°39'198 4.9
2017-Nov-28 05:15N 29°36' W 089°51'1412.6
2017-Nov-28 04:10N 29°46' W 090°01'10 5.3
2017-Nov-28 02:21N 29°56' W 090°04'  
2017-Nov-25 11:36N 29°53' W 089°58'510.5
2017-Nov-25 11:06N 29°48' W 090°00'110.4
2017-Nov-25 11:00N 29°47' W 090°01'510.6
2017-Nov-25 10:30N 29°42' W 089°59'510.8
2017-Nov-25 10:00N 29°38' W 089°55'611.2
2017-Nov-25 09:30N 29°35' W 089°49'  
Track history (hours):
 
Tides and Currents Weather Stations Pressure Air Temp Water Temp Dewpoint Dewpoint Depression Visibility Wind Speed Wind Dir Waves Ship Positions

Bow Kiso

Last reported at 2017-Dec-03 17:39 UTC. Time now 2017-Dec-18 01:18 UTC.
Position N 29°23' W 094°53'.
Warning: this ship's position is 14 days out of date.

Length 170 m; draft 9.3 m.

Type: Ship (hazmat cat A). MMSI: 356958000.

Date/timePositionNaut miles runAvg speedWind from/ knotsBaromVisibWave heightAir tempDewpointWater temp
2017-Dec-03 17:39N 29°23' W 094°53'1 5.5
2017-Dec-03 17:31N 29°23' W 094°52'5 9.4
2017-Dec-03 16:56N 29°21' W 094°46'2610.3
2017-Dec-03 14:25N 29°12' W 094°18'712.8
2017-Dec-03 13:53N 29°17' W 094°13'512.7
2017-Dec-03 13:30N 29°20' W 094°09'712.4
2017-Dec-03 12:59N 29°25' W 094°04'3 6.0
2017-Dec-03 12:29N 29°23' W 094°06'4 8.1
2017-Dec-03 12:00N 29°25' W 094°02'611.8
2017-Dec-03 11:31N 29°21' W 094°07'812.4
2017-Dec-03 10:52N 29°15' W 094°14'411.4
2017-Dec-03 10:31N 29°12' W 094°17'612.1
2017-Dec-03 10:01N 29°17' W 094°12'612.9
2017-Dec-03 09:30N 29°21' W 094°07'612.7
2017-Dec-03 09:00N 29°25' W 094°01'510.2
2017-Dec-03 08:31N 29°29' W 093°57'612.4
2017-Dec-03 08:01N 29°25' W 094°03'912.4
2017-Dec-03 07:19N 29°19' W 094°10'411.7
2017-Dec-03 07:00N 29°17' W 094°13'611.9
2017-Dec-03 06:30N 29°20' W 094°08'712.6
2017-Dec-03 05:56N 29°25' W 094°02'512.6
2017-Dec-03 05:31N 29°29' W 093°57'11 9.6
2017-Dec-03 04:25N 29°35' W 093°47'710.9
2017-Dec-03 03:49N 29°41' W 093°50'311.4
2017-Dec-03 03:30N 29°44' W 093°52'9 6.6
2017-Dec-03 02:13N 29°52' W 093°56'2 6.3
2017-Dec-03 01:58N 29°53' W 093°55'4 8.5
2017-Dec-03 01:30N 29°56' W 093°52'  
2017-Nov-30 14:18N 30°05' W 094°05'0 0.0
2017-Nov-30 14:00N 30°05' W 094°05'0 0.0
2017-Nov-30 13:24N 30°05' W 094°05'0 0.0
2017-Nov-30 12:09N 30°05' W 094°05'0 0.1
2017-Nov-30 12:00N 30°05' W 094°05'0 0.0
2017-Nov-30 11:18N 30°05' W 094°05'0 0.0
2017-Nov-30 11:00N 30°05' W 094°05'0 0.0
2017-Nov-30 10:30N 30°05' W 094°05'0 0.0
2017-Nov-30 10:00N 30°05' W 094°05'0 0.0
2017-Nov-30 09:30N 30°05' W 094°05'0 0.0
2017-Nov-30 09:00N 30°05' W 094°05'0 0.0
2017-Nov-30 08:30N 30°05' W 094°05'0 0.0
2017-Nov-30 07:06N 30°05' W 094°05'0 0.1
2017-Nov-30 07:00N 30°05' W 094°05'0 0.0
2017-Nov-30 06:26N 30°05' W 094°05'0 0.0
2017-Nov-30 06:00N 30°05' W 094°05'0 0.0
2017-Nov-30 05:30N 30°05' W 094°05'7 4.4
2017-Nov-30 04:00N 30°01' W 093°59'7 6.3
2017-Nov-30 02:53N 29°58' W 093°51'3 8.0
2017-Nov-30 02:30N 29°55' W 093°53'4 8.8
2017-Nov-30 02:00N 29°52' W 093°56'12 7.8
2017-Nov-30 00:29N 29°41' W 093°50'1512.6
2017-Nov-29 23:17N 29°29' W 093°40'310.2
2017-Nov-29 23:01N 29°26' W 093°38'1 1.1
2017-Nov-29 22:28N 29°26' W 093°39'0 0.0
2017-Nov-29 21:58N 29°26' W 093°39'198 4.9
2017-Nov-28 05:15N 29°36' W 089°51'1412.6
2017-Nov-28 04:10N 29°46' W 090°01'10 5.3
2017-Nov-28 02:21N 29°56' W 090°04'  
2017-Nov-25 11:36N 29°53' W 089°58'510.5
2017-Nov-25 11:06N 29°48' W 090°00'110.4
2017-Nov-25 11:00N 29°47' W 090°01'510.6
2017-Nov-25 10:30N 29°42' W 089°59'510.8
2017-Nov-25 10:00N 29°38' W 089°55'611.2
2017-Nov-25 09:30N 29°35' W 089°49'  

Dump ship's entire track history